Urb Venus Gdns, Puerto Rico
Current Conditions -  °F | °C
As of 2:56 AM on Thursday 23 Oct 2014 (Local Time) from TJSJ Reporting Station
Few Clouds Few Clouds  
Wind Chill: 79°   Ceiling: Unl
Heat Index: 82°   Visibility: 10mi
Dew Point: 74°   Wind: 0mph
Humidity: 84%   Direction: NA
Pressure: 29.91"   Gusts: NA
Location:  18.3754°N, 66.0577°W
Report Text: TJSJ 230656Z 00000KT 10SM FEW018 26/23 A2991 RMK AO2 SLP128 T02610233
Loading
Personal Weather Stations






























Interactive Weather Map
Tropical Storm Tracking
New forecast layout! Learn more

10-Day Weather Forecast

Advertisements
Track Severe Weather on mobile